sensor_id;sensor_type;location;lat;lon;timestamp;pressure;altitude;pressure_sealevel;temperature
15453;BMP280;7827;53.594;9.938;2022-07-29T00:01:50;152189.59;;;15.40
15453;BMP280;7827;53.594;9.938;2022-07-29T00:04:20;152182.03;;;15.37
15453;BMP280;7827;53.594;9.938;2022-07-29T00:06:48;152171.97;;;15.33
15453;BMP280;7827;53.594;9.938;2022-07-29T00:09:16;152169.44;;;15.32
15453;BMP280;7827;53.594;9.938;2022-07-29T00:11:45;152184.53;;;15.38
15453;BMP280;7827;53.594;9.938;2022-07-29T00:14:13;152193.34;;;15.41
15453;BMP280;7827;53.594;9.938;2022-07-29T00:16:43;152190.81;;;15.40
15453;BMP280;7827;53.594;9.938;2022-07-29T00:19:11;152169.44;;;15.32
15453;BMP280;7827;53.594;9.938;2022-07-29T00:21:40;152171.97;;;15.33
15453;BMP280;7827;53.594;9.938;2022-07-29T00:24:08;152169.44;;;15.32
15453;BMP280;7827;53.594;9.938;2022-07-29T00:26:36;152173.22;;;15.33
15453;BMP280;7827;53.594;9.938;2022-07-29T00:29:05;152164.44;;;15.30
15453;BMP280;7827;53.594;9.938;2022-07-29T00:31:54;152158.13;;;15.27
15453;BMP280;7827;53.594;9.938;2022-07-29T00:34:23;152170.72;;;15.32
15453;BMP280;7827;53.594;9.938;2022-07-29T00:37:09;152146.81;;;15.23
15453;BMP280;7827;53.594;9.938;2022-07-29T00:39:37;152131.69;;;15.17
15453;BMP280;7827;53.594;9.938;2022-07-29T00:42:06;152119.13;;;15.12
15453;BMP280;7827;53.594;9.938;2022-07-29T00:44:37;152115.38;;;15.10
15453;BMP280;7827;53.594;9.938;2022-07-29T00:47:08;152115.38;;;15.10
15453;BMP280;7827;53.594;9.938;2022-07-29T00:49:38;152104.06;;;15.06
15453;BMP280;7827;53.594;9.938;2022-07-29T00:52:09;152094.00;;;15.02
15453;BMP280;7827;53.594;9.938;2022-07-29T00:54:39;152078.91;;;14.96
15453;BMP280;7827;53.594;9.938;2022-07-29T00:57:11;152066.34;;;14.91
15453;BMP280;7827;53.594;9.938;2022-07-29T00:59:39;152072.59;;;14.94
15453;BMP280;7827;53.594;9.938;2022-07-29T01:02:09;152073.91;;;14.94
15453;BMP280;7827;53.594;9.938;2022-07-29T01:04:38;152083.91;;;14.98
15453;BMP280;7827;53.594;9.938;2022-07-29T01:07:07;152078.91;;;14.96
15453;BMP280;7827;53.594;9.938;2022-07-29T01:09:37;152083.91;;;14.98
15453;BMP280;7827;53.594;9.938;2022-07-29T01:12:18;152073.91;;;14.94
15453;BMP280;7827;53.594;9.938;2022-07-29T01:14:48;152061.28;;;14.89
15453;BMP280;7827;53.594;9.938;2022-07-29T01:17:24;152036.16;;;14.79
15453;BMP280;7827;53.594;9.938;2022-07-29T01:20:01;152026.13;;;14.75
15453;BMP280;7827;53.594;9.938;2022-07-29T01:22:53;152014.84;;;14.71
15453;BMP280;7827;53.594;9.938;2022-07-29T01:28:58;152026.13;;;14.75
15453;BMP280;7827;53.594;9.938;2022-07-29T01:31:43;152023.59;;;14.74
15453;BMP280;7827;53.594;9.938;2022-07-29T01:34:32;152018.59;;;14.72
15453;BMP280;7827;53.594;9.938;2022-07-29T01:37:12;152012.31;;;14.70
15453;BMP280;7827;53.594;9.938;2022-07-29T01:39:45;151996.00;;;14.63
15453;BMP280;7827;53.594;9.938;2022-07-29T01:42:26;151992.22;;;14.62
15453;BMP280;7827;53.594;9.938;2022-07-29T01:45:03;152001.00;;;14.65
15453;BMP280;7827;53.594;9.938;2022-07-29T01:47:41;151998.47;;;14.64
15453;BMP280;7827;53.594;9.938;2022-07-29T01:50:14;151996.00;;;14.63
15453;BMP280;7827;53.594;9.938;2022-07-29T01:52:54;151985.91;;;14.60
15453;BMP280;7827;53.594;9.938;2022-07-29T01:55:29;151999.75;;;14.65
15453;BMP280;7827;53.594;9.938;2022-07-29T01:58:00;152001.00;;;14.65
15453;BMP280;7827;53.594;9.938;2022-07-29T02:00:32;151990.94;;;14.61
15453;BMP280;7827;53.594;9.938;2022-07-29T02:03:07;151970.84;;;14.54
15453;BMP280;7827;53.594;9.938;2022-07-29T02:05:39;151987.16;;;14.60
15453;BMP280;7827;53.594;9.938;2022-07-29T02:08:09;151980.91;;;14.58
15453;BMP280;7827;53.594;9.938;2022-07-29T02:10:40;151967.06;;;14.52
15453;BMP280;7827;53.594;9.938;2022-07-29T02:13:12;151970.84;;;14.54
15453;BMP280;7827;53.594;9.938;2022-07-29T02:15:44;151985.91;;;14.60
15453;BMP280;7827;53.594;9.938;2022-07-29T02:18:16;151999.75;;;14.65
15453;BMP280;7827;53.594;9.938;2022-07-29T02:20:48;151996.00;;;14.63
15453;BMP280;7827;53.594;9.938;2022-07-29T02:23:19;151990.94;;;14.61
15453;BMP280;7827;53.594;9.938;2022-07-29T02:25:52;151997.22;;;14.64
15453;BMP280;7827;53.594;9.938;2022-07-29T02:28:22;151984.69;;;14.59
15453;BMP280;7827;53.594;9.938;2022-07-29T02:30:55;151982.16;;;14.58
15453;BMP280;7827;53.594;9.938;2022-07-29T02:33:26;151989.69;;;14.61
15453;BMP280;7827;53.594;9.938;2022-07-29T02:35:56;152001.00;;;14.65
15453;BMP280;7827;53.594;9.938;2022-07-29T02:38:28;152008.53;;;14.68
15453;BMP280;7827;53.594;9.938;2022-07-29T02:41:14;152004.75;;;14.67
15453;BMP280;7827;53.594;9.938;2022-07-29T02:43:45;151998.47;;;14.64
15453;BMP280;7827;53.594;9.938;2022-07-29T02:46:23;152001.00;;;14.65
15453;BMP280;7827;53.594;9.938;2022-07-29T02:49:02;152001.00;;;14.65
15453;BMP280;7827;53.594;9.938;2022-07-29T02:51:42;152018.59;;;14.72
15453;BMP280;7827;53.594;9.938;2022-07-29T02:54:24;152031.16;;;14.77
15453;BMP280;7827;53.594;9.938;2022-07-29T02:56:56;152021.06;;;14.73
15453;BMP280;7827;53.594;9.938;2022-07-29T02:59:30;152011.06;;;14.69
15453;BMP280;7827;53.594;9.938;2022-07-29T03:02:04;151998.47;;;14.64
15453;BMP280;7827;53.594;9.938;2022-07-29T03:04:35;151992.22;;;14.62
15453;BMP280;7827;53.594;9.938;2022-07-29T03:07:04;151990.94;;;14.61
15453;BMP280;7827;53.594;9.938;2022-07-29T03:09:33;151987.16;;;14.60
15453;BMP280;7827;53.594;9.938;2022-07-29T03:12:04;151988.44;;;14.61
15453;BMP280;7827;53.594;9.938;2022-07-29T03:14:33;151978.38;;;14.57
15453;BMP280;7827;53.594;9.938;2022-07-29T03:17:05;151990.94;;;14.61
15453;BMP280;7827;53.594;9.938;2022-07-29T03:19:33;152001.00;;;14.65
15453;BMP280;7827;53.594;9.938;2022-07-29T03:22:02;152003.53;;;14.66
15453;BMP280;7827;53.594;9.938;2022-07-29T03:24:34;152021.06;;;14.73
15453;BMP280;7827;53.594;9.938;2022-07-29T03:27:04;152021.06;;;14.73
15453;BMP280;7827;53.594;9.938;2022-07-29T03:29:33;152026.13;;;14.75
15453;BMP280;7827;53.594;9.938;2022-07-29T03:32:05;152028.63;;;14.76
15453;BMP280;7827;53.594;9.938;2022-07-29T03:34:36;152046.22;;;14.83
15453;BMP280;7827;53.594;9.938;2022-07-29T03:37:06;152056.28;;;14.87
15453;BMP280;7827;53.594;9.938;2022-07-29T03:39:40;152076.38;;;14.95
15453;BMP280;7827;53.594;9.938;2022-07-29T03:42:13;152080.16;;;14.97
15453;BMP280;7827;53.594;9.938;2022-07-29T03:44:45;152071.38;;;14.93
15453;BMP280;7827;53.594;9.938;2022-07-29T03:47:24;152068.84;;;14.92
15453;BMP280;7827;53.594;9.938;2022-07-29T03:50:15;152082.69;;;14.98
15453;BMP280;7827;53.594;9.938;2022-07-29T03:52:43;152078.91;;;14.96
15453;BMP280;7827;53.594;9.938;2022-07-29T03:55:13;152085.22;;;14.99
15453;BMP280;7827;53.594;9.938;2022-07-29T03:57:42;152091.47;;;15.01
15453;BMP280;7827;53.594;9.938;2022-07-29T04:00:13;152107.84;;;15.08
15453;BMP280;7827;53.594;9.938;2022-07-29T04:02:44;152119.13;;;15.12
15453;BMP280;7827;53.594;9.938;2022-07-29T04:05:17;152099.00;;;15.04
15453;BMP280;7827;53.594;9.938;2022-07-29T04:07:46;152094.00;;;15.02
15453;BMP280;7827;53.594;9.938;2022-07-29T04:10:17;152094.00;;;15.02
15453;BMP280;7827;53.594;9.938;2022-07-29T04:12:57;152106.53;;;15.07
15453;BMP280;7827;53.594;9.938;2022-07-29T04:15:26;152131.69;;;15.17
15453;BMP280;7827;53.594;9.938;2022-07-29T04:17:58;152144.34;;;15.22
15453;BMP280;7827;53.594;9.938;2022-07-29T04:20:27;152134.28;;;15.18
15453;BMP280;7827;53.594;9.938;2022-07-29T04:22:55;152132.97;;;15.17
15453;BMP280;7827;53.594;9.938;2022-07-29T04:25:23;152131.69;;;15.17
15453;BMP280;7827;53.594;9.938;2022-07-29T04:27:51;152148.09;;;15.23
15453;BMP280;7827;53.594;9.938;2022-07-29T04:30:30;152155.66;;;15.26
15453;BMP280;7827;53.594;9.938;2022-07-29T04:33:01;152155.66;;;15.26
15453;BMP280;7827;53.594;9.938;2022-07-29T04:35:31;152163.19;;;15.29
15453;BMP280;7827;53.594;9.938;2022-07-29T04:38:06;152189.59;;;15.40
15453;BMP280;7827;53.594;9.938;2022-07-29T04:40:41;152199.59;;;15.44
15453;BMP280;7827;53.594;9.938;2022-07-29T04:43:10;152197.13;;;15.43
15453;BMP280;7827;53.594;9.938;2022-07-29T04:45:41;152190.81;;;15.40
15453;BMP280;7827;53.594;9.938;2022-07-29T04:48:11;152189.59;;;15.40
15453;BMP280;7827;53.594;9.938;2022-07-29T04:50:40;152184.53;;;15.38
15453;BMP280;7827;53.594;9.938;2022-07-29T04:53:09;152208.44;;;15.47
15453;BMP280;7827;53.594;9.938;2022-07-29T04:55:37;152227.28;;;15.55
15453;BMP280;7827;53.594;9.938;2022-07-29T04:58:05;152246.16;;;15.62
15453;BMP280;7827;53.594;9.938;2022-07-29T05:00:34;152272.56;;;15.72
15453;BMP280;7827;53.594;9.938;2022-07-29T05:03:02;152287.66;;;15.78
15453;BMP280;7827;53.594;9.938;2022-07-29T05:05:33;152298.97;;;15.83
15453;BMP280;7827;53.594;9.938;2022-07-29T05:08:01;152300.19;;;15.83
15453;BMP280;7827;53.594;9.938;2022-07-29T05:10:29;152301.50;;;15.84
15453;BMP280;7827;53.594;9.938;2022-07-29T05:12:58;152311.50;;;15.88
15453;BMP280;7827;53.594;9.938;2022-07-29T05:15:26;152325.38;;;15.93
15453;BMP280;7827;53.594;9.938;2022-07-29T05:17:54;152332.91;;;15.96
15453;BMP280;7827;53.594;9.938;2022-07-29T05:20:23;152329.13;;;15.95
15453;BMP280;7827;53.594;9.938;2022-07-29T05:22:57;152316.59;;;15.90
15453;BMP280;7827;53.594;9.938;2022-07-29T05:25:27;152330.44;;;15.95
15453;BMP280;7827;53.594;9.938;2022-07-29T05:28:10;152348.00;;;16.02
15453;BMP280;7827;53.594;9.938;2022-07-29T05:30:39;152345.53;;;16.01
15453;BMP280;7827;53.594;9.938;2022-07-29T05:33:07;152343.00;;;16.00
15453;BMP280;7827;53.594;9.938;2022-07-29T05:35:56;152353.06;;;16.04
15453;BMP280;7827;53.594;9.938;2022-07-29T05:38:28;152385.72;;;16.17
15453;BMP280;7827;53.594;9.938;2022-07-29T05:40:57;152441.13;;;16.39
15453;BMP280;7827;53.594;9.938;2022-07-29T05:43:30;152488.94;;;16.58
15453;BMP280;7827;53.594;9.938;2022-07-29T05:45:59;152481.41;;;16.55
15453;BMP280;7827;53.594;9.938;2022-07-29T05:48:27;152470.09;;;16.50
15453;BMP280;7827;53.594;9.938;2022-07-29T05:50:57;152480.16;;;16.54
15453;BMP280;7827;53.594;9.938;2022-07-29T05:53:25;152505.28;;;16.64
15453;BMP280;7827;53.594;9.938;2022-07-29T05:55:55;152519.16;;;16.69
15453;BMP280;7827;53.594;9.938;2022-07-29T05:58:23;152539.31;;;16.77
15453;BMP280;7827;53.594;9.938;2022-07-29T06:00:52;152554.41;;;16.83
15453;BMP280;7827;53.594;9.938;2022-07-29T06:03:21;152599.69;;;17.01
15453;BMP280;7827;53.594;9.938;2022-07-29T06:05:49;152597.16;;;17.00
15453;BMP280;7827;53.594;9.938;2022-07-29T06:08:18;152608.50;;;17.05
15453;BMP280;7827;53.594;9.938;2022-07-29T06:10:46;152623.59;;;17.10
15453;BMP280;7827;53.594;9.938;2022-07-29T06:13:16;152657.63;;;17.24
15453;BMP280;7827;53.594;9.938;2022-07-29T06:15:45;152690.38;;;17.37
15453;BMP280;7827;53.594;9.938;2022-07-29T06:18:13;152715.56;;;17.47
15453;BMP280;7827;53.594;9.938;2022-07-29T06:20:42;152750.78;;;17.60
15453;BMP280;7827;53.594;9.938;2022-07-29T06:23:10;152806.19;;;17.82
15453;BMP280;7827;53.594;9.938;2022-07-29T06:25:40;152854.06;;;18.01
15453;BMP280;7827;53.594;9.938;2022-07-29T06:28:08;152821.31;;;17.88
15453;BMP280;7827;53.594;9.938;2022-07-29T06:30:38;152808.72;;;17.83
15453;BMP280;7827;53.594;9.938;2022-07-29T06:33:07;152818.81;;;17.87
15453;BMP280;7827;53.594;9.938;2022-07-29T06:35:36;152828.88;;;17.91
15453;BMP280;7827;53.594;9.938;2022-07-29T06:38:10;152798.66;;;17.79
15453;BMP280;7827;53.594;9.938;2022-07-29T06:41:00;152807.50;;;17.83
15453;BMP280;7827;53.594;9.938;2022-07-29T06:43:31;152817.53;;;17.87
15453;BMP280;7827;53.594;9.938;2022-07-29T06:46:04;152807.50;;;17.83
15453;BMP280;7827;53.594;9.938;2022-07-29T06:48:34;152811.28;;;17.84
15453;BMP280;7827;53.594;9.938;2022-07-29T06:51:04;152817.53;;;17.87
15453;BMP280;7827;53.594;9.938;2022-07-29T06:53:33;152854.06;;;18.01
15453;BMP280;7827;53.594;9.938;2022-07-29T06:56:04;152885.63;;;18.13
15453;BMP280;7827;53.594;9.938;2022-07-29T06:58:37;152901.97;;;18.20
15453;BMP280;7827;53.594;9.938;2022-07-29T07:01:07;152925.91;;;18.29
15453;BMP280;7827;53.594;9.938;2022-07-29T07:03:40;152967.47;;;18.46
15453;BMP280;7827;53.594;9.938;2022-07-29T07:06:09;153010.31;;;18.62
15453;BMP280;7827;53.594;9.938;2022-07-29T07:08:41;153016.66;;;18.65
15453;BMP280;7827;53.594;9.938;2022-07-29T07:11:09;153038.03;;;18.73
15453;BMP280;7827;53.594;9.938;2022-07-29T07:13:38;153092.22;;;18.95
15453;BMP280;7827;53.594;9.938;2022-07-29T07:16:07;153114.97;;;19.04
15453;BMP280;7827;53.594;9.938;2022-07-29T07:18:36;153120.00;;;19.05
15453;BMP280;7827;53.594;9.938;2022-07-29T07:21:04;153113.72;;;19.03
15453;BMP280;7827;53.594;9.938;2022-07-29T07:23:32;153114.97;;;19.04
15453;BMP280;7827;53.594;9.938;2022-07-29T07:26:01;153141.44;;;19.14
15453;BMP280;7827;53.594;9.938;2022-07-29T07:28:29;153184.31;;;19.31
15453;BMP280;7827;53.594;9.938;2022-07-29T07:30:58;153219.59;;;19.45
15453;BMP280;7827;53.594;9.938;2022-07-29T07:33:27;153247.34;;;19.55
15453;BMP280;7827;53.594;9.938;2022-07-29T07:35:55;153243.53;;;19.54
15453;BMP280;7827;53.594;9.938;2022-07-29T07:38:24;153239.72;;;19.52
15453;BMP280;7827;53.594;9.938;2022-07-29T07:40:52;153247.34;;;19.55
15453;BMP280;7827;53.594;9.938;2022-07-29T07:43:20;153258.69;;;19.60
15453;BMP280;7827;53.594;9.938;2022-07-29T07:45:49;153252.38;;;19.57
15453;BMP280;7827;53.594;9.938;2022-07-29T07:48:17;153238.50;;;19.52
15453;BMP280;7827;53.594;9.938;2022-07-29T07:50:47;153205.72;;;19.39
15453;BMP280;7827;53.594;9.938;2022-07-29T07:53:17;153203.22;;;19.38
15453;BMP280;7827;53.594;9.938;2022-07-29T07:55:46;153210.78;;;19.41
15453;BMP280;7827;53.594;9.938;2022-07-29T07:58:34;153220.84;;;19.45
15453;BMP280;7827;53.594;9.938;2022-07-29T08:01:03;153238.50;;;19.52
15453;BMP280;7827;53.594;9.938;2022-07-29T08:03:32;153257.41;;;19.59
15453;BMP280;7827;53.594;9.938;2022-07-29T08:06:03;153283.88;;;19.70
15453;BMP280;7827;53.594;9.938;2022-07-29T08:08:31;153328.06;;;19.87
15453;BMP280;7827;53.594;9.938;2022-07-29T08:10:59;153394.91;;;20.13
15453;BMP280;7827;53.594;9.938;2022-07-29T08:13:36;153431.50;;;20.28
15453;BMP280;7827;53.594;9.938;2022-07-29T08:16:06;153441.59;;;20.32
15453;BMP280;7827;53.594;9.938;2022-07-29T08:18:44;153485.72;;;20.49
15453;BMP280;7827;53.594;9.938;2022-07-29T08:21:15;153490.78;;;20.51
15453;BMP280;7827;53.594;9.938;2022-07-29T08:23:44;153487.00;;;20.50
15453;BMP280;7827;53.594;9.938;2022-07-29T08:26:26;153499.59;;;20.54
15453;BMP280;7827;53.594;9.938;2022-07-29T08:28:55;153514.75;;;20.60
15453;BMP280;7827;53.594;9.938;2022-07-29T08:31:23;153545.06;;;20.72
15453;BMP280;7827;53.594;9.938;2022-07-29T08:33:52;153593.03;;;20.91
15453;BMP280;7827;53.594;9.938;2022-07-29T08:36:21;153596.81;;;20.93
15453;BMP280;7827;53.594;9.938;2022-07-29T08:38:50;153624.59;;;21.03
15453;BMP280;7827;53.594;9.938;2022-07-29T08:41:19;153638.44;;;21.09
15453;BMP280;7827;53.594;9.938;2022-07-29T08:43:47;153675.06;;;21.23
15453;BMP280;7827;53.594;9.938;2022-07-29T08:46:16;153691.44;;;21.30
15453;BMP280;7827;53.594;9.938;2022-07-29T08:48:46;153699.00;;;21.33
15453;BMP280;7827;53.594;9.938;2022-07-29T08:51:18;153728.06;;;21.44
15453;BMP280;7827;53.594;9.938;2022-07-29T08:53:50;153711.66;;;21.38
15453;BMP280;7827;53.594;9.938;2022-07-29T08:56:20;153734.44;;;21.47
15453;BMP280;7827;53.594;9.938;2022-07-29T08:58:49;153764.72;;;21.58
15453;BMP280;7827;53.594;9.938;2022-07-29T09:01:25;153791.22;;;21.69
15453;BMP280;7827;53.594;9.938;2022-07-29T09:04:06;153807.69;;;21.75
15453;BMP280;7827;53.594;9.938;2022-07-29T09:06:45;153846.78;;;21.91
15453;BMP280;7827;53.594;9.938;2022-07-29T09:09:15;153897.31;;;22.10
15453;BMP280;7827;53.594;9.938;2022-07-29T09:11:44;153942.84;;;22.28
15453;BMP280;7827;53.594;9.938;2022-07-29T09:14:13;154007.25;;;22.53
15453;BMP280;7827;53.594;9.938;2022-07-29T09:16:48;154028.72;;;22.62
15453;BMP280;7827;53.594;9.938;2022-07-29T09:19:25;154024.94;;;22.60
15453;BMP280;7827;53.594;9.938;2022-07-29T09:21:55;154057.75;;;22.73
15453;BMP280;7827;53.594;9.938;2022-07-29T09:24:37;154056.50;;;22.73
15453;BMP280;7827;53.594;9.938;2022-07-29T09:27:19;154064.06;;;22.76
15453;BMP280;7827;53.594;9.938;2022-07-29T09:29:56;154064.06;;;22.76
15453;BMP280;7827;53.594;9.938;2022-07-29T09:32:26;154024.94;;;22.60
15453;BMP280;7827;53.594;9.938;2022-07-29T09:35:17;154024.94;;;22.60
15453;BMP280;7827;53.594;9.938;2022-07-29T09:37:46;154031.22;;;22.63
15453;BMP280;7827;53.594;9.938;2022-07-29T09:40:19;154009.78;;;22.54
15453;BMP280;7827;53.594;9.938;2022-07-29T09:42:49;154004.69;;;22.52
15453;BMP280;7827;53.594;9.938;2022-07-29T09:45:29;153984.50;;;22.45
15453;BMP280;7827;53.594;9.938;2022-07-29T09:47:58;154000.91;;;22.51
15453;BMP280;7827;53.594;9.938;2022-07-29T09:50:38;153992.09;;;22.48
15453;BMP280;7827;53.594;9.938;2022-07-29T09:53:07;154012.28;;;22.55
15453;BMP280;7827;53.594;9.938;2022-07-29T09:55:48;154018.59;;;22.58
15453;BMP280;7827;53.594;9.938;2022-07-29T09:58:20;154028.72;;;22.62
15453;BMP280;7827;53.594;9.938;2022-07-29T10:00:52;154050.16;;;22.70
15453;BMP280;7827;53.594;9.938;2022-07-29T10:03:22;154059.03;;;22.74
15453;BMP280;7827;53.594;9.938;2022-07-29T10:06:09;154031.22;;;22.63
15453;BMP280;7827;53.594;9.938;2022-07-29T10:08:38;154057.75;;;22.73
15453;BMP280;7827;53.594;9.938;2022-07-29T10:11:12;154078.00;;;22.81
15453;BMP280;7827;53.594;9.938;2022-07-29T10:13:43;154089.34;;;22.86
15453;BMP280;7827;53.594;9.938;2022-07-29T10:16:14;154080.53;;;22.82
15453;BMP280;7827;53.594;9.938;2022-07-29T10:18:44;154075.44;;;22.80
15453;BMP280;7827;53.594;9.938;2022-07-29T10:21:13;154075.44;;;22.80
15453;BMP280;7827;53.594;9.938;2022-07-29T10:24:04;154062.84;;;22.75
15453;BMP280;7827;53.594;9.938;2022-07-29T10:26:42;154070.41;;;22.78
15453;BMP280;7827;53.594;9.938;2022-07-29T10:29:12;154088.09;;;22.85
15453;BMP280;7827;53.594;9.938;2022-07-29T10:31:50;154075.44;;;22.80
15453;BMP280;7827;53.594;9.938;2022-07-29T10:34:36;154075.44;;;22.80
15453;BMP280;7827;53.594;9.938;2022-07-29T10:37:23;154081.78;;;22.83
15453;BMP280;7827;53.594;9.938;2022-07-29T10:40:16;154090.59;;;22.86
15453;BMP280;7827;53.594;9.938;2022-07-29T10:43:19;154095.69;;;22.88
15453;BMP280;7827;53.594;9.938;2022-07-29T10:45:55;154088.09;;;22.85
15453;BMP280;7827;53.594;9.938;2022-07-29T10:48:25;154103.25;;;22.91
15453;BMP280;7827;53.594;9.938;2022-07-29T10:50:58;154114.69;;;22.96
15453;BMP280;7827;53.594;9.938;2022-07-29T10:53:50;154136.13;;;23.04
15453;BMP280;7827;53.594;9.938;2022-07-29T10:56:25;154138.69;;;23.05
15453;BMP280;7827;53.594;9.938;2022-07-29T10:59:23;154145.00;;;23.07
15453;BMP280;7827;53.594;9.938;2022-07-29T11:02:02;154153.84;;;23.11
15453;BMP280;7827;53.594;9.938;2022-07-29T11:05:10;154181.66;;;23.22
15453;BMP280;7827;53.594;9.938;2022-07-29T11:08:19;154191.75;;;23.26
15453;BMP280;7827;53.594;9.938;2022-07-29T11:11:31;154212.00;;;23.34
15453;BMP280;7827;53.594;9.938;2022-07-29T11:14:01;154225.84;;;23.39
15453;BMP280;7827;53.594;9.938;2022-07-29T11:17:03;154268.84;;;23.56
15453;BMP280;7827;53.594;9.938;2022-07-29T11:19:34;154329.56;;;23.80
15453;BMP280;7827;53.594;9.938;2022-07-29T11:22:08;154405.41;;;24.09
15453;BMP280;7827;53.594;9.938;2022-07-29T11:24:42;154457.25;;;24.30
15453;BMP280;7827;53.594;9.938;2022-07-29T11:27:18;154457.25;;;24.30
15453;BMP280;7827;53.594;9.938;2022-07-29T11:29:54;154463.59;;;24.32
15453;BMP280;7827;53.594;9.938;2022-07-29T11:32:38;154447.19;;;24.26
15453;BMP280;7827;53.594;9.938;2022-07-29T11:35:18;154473.78;;;24.36
15453;BMP280;7827;53.594;9.938;2022-07-29T11:38:24;154502.84;;;24.48
15453;BMP280;7827;53.594;9.938;2022-07-29T11:41:25;154543.31;;;24.63
15453;BMP280;7827;53.594;9.938;2022-07-29T11:43:56;154520.56;;;24.54
15453;BMP280;7827;53.594;9.938;2022-07-29T11:46:45;154534.47;;;24.60
15453;BMP280;7827;53.594;9.938;2022-07-29T11:49:21;154523.09;;;24.55
15453;BMP280;7827;53.594;9.938;2022-07-29T11:52:00;154543.31;;;24.63
15453;BMP280;7827;53.594;9.938;2022-07-29T11:54:51;154561.03;;;24.70
15453;BMP280;7827;53.594;9.938;2022-07-29T11:57:27;154548.41;;;24.65
15453;BMP280;7827;53.594;9.938;2022-07-29T12:00:06;154535.72;;;24.60
15453;BMP280;7827;53.594;9.938;2022-07-29T12:02:42;154507.91;;;24.50
15453;BMP280;7827;53.594;9.938;2022-07-29T12:05:19;154495.25;;;24.45
15453;BMP280;7827;53.594;9.938;2022-07-29T12:08:12;154534.47;;;24.60
15453;BMP280;7827;53.594;9.938;2022-07-29T12:10:42;154619.19;;;24.93
15453;BMP280;7827;53.594;9.938;2022-07-29T12:13:11;154663.53;;;25.10
15453;BMP280;7827;53.594;9.938;2022-07-29T12:15:41;154664.84;;;25.11
15453;BMP280;7827;53.594;9.938;2022-07-29T12:18:18;154664.84;;;25.11
15453;BMP280;7827;53.594;9.938;2022-07-29T12:20:59;154707.81;;;25.28
15453;BMP280;7827;53.594;9.938;2022-07-29T12:23:31;154748.31;;;25.44
15453;BMP280;7827;53.594;9.938;2022-07-29T12:26:04;154753.38;;;25.46
15453;BMP280;7827;53.594;9.938;2022-07-29T12:28:48;154781.25;;;25.56
15453;BMP280;7827;53.594;9.938;2022-07-29T12:31:16;154747.06;;;25.43
15453;BMP280;7827;53.594;9.938;2022-07-29T12:34:05;154747.06;;;25.43
15453;BMP280;7827;53.594;9.938;2022-07-29T12:36:34;154762.25;;;25.49
15453;BMP280;7827;53.594;9.938;2022-07-29T12:39:03;154757.16;;;25.47
15453;BMP280;7827;53.594;9.938;2022-07-29T12:41:32;154755.91;;;25.47
15453;BMP280;7827;53.594;9.938;2022-07-29T12:44:00;154768.56;;;25.51
15453;BMP280;7827;53.594;9.938;2022-07-29T12:46:28;154787.53;;;25.59
15453;BMP280;7827;53.594;9.938;2022-07-29T12:48:57;154831.88;;;25.76
15453;BMP280;7827;53.594;9.938;2022-07-29T12:51:29;154882.53;;;25.96
15453;BMP280;7827;53.594;9.938;2022-07-29T12:54:05;154886.34;;;25.98
15453;BMP280;7827;53.594;9.938;2022-07-29T12:56:34;154857.22;;;25.86
15453;BMP280;7827;53.594;9.938;2022-07-29T12:59:14;154869.84;;;25.91
15453;BMP280;7827;53.594;9.938;2022-07-29T13:01:43;154876.19;;;25.94
15453;BMP280;7827;53.594;9.938;2022-07-29T13:04:23;154916.72;;;26.09
15453;BMP280;7827;53.594;9.938;2022-07-29T13:06:59;154948.34;;;26.22
15453;BMP280;7827;53.594;9.938;2022-07-29T13:09:40;154949.66;;;26.22
15453;BMP280;7827;53.594;9.938;2022-07-29T13:12:12;154986.38;;;26.37
15453;BMP280;7827;53.594;9.938;2022-07-29T13:14:43;155011.72;;;26.47
15453;BMP280;7827;53.594;9.938;2022-07-29T13:17:14;154999.06;;;26.42
15453;BMP280;7827;53.594;9.938;2022-07-29T13:19:44;154940.75;;;26.19
15453;BMP280;7827;53.594;9.938;2022-07-29T13:22:16;154973.72;;;26.32
15453;BMP280;7827;53.594;9.938;2022-07-29T13:24:52;154957.25;;;26.25
15453;BMP280;7827;53.594;9.938;2022-07-29T13:27:23;154950.91;;;26.23
15453;BMP280;7827;53.594;9.938;2022-07-29T13:29:52;154942.06;;;26.19
15453;BMP280;7827;53.594;9.938;2022-07-29T13:32:24;154948.34;;;26.22
15453;BMP280;7827;53.594;9.938;2022-07-29T13:34:55;154964.88;;;26.28
15453;BMP280;7827;53.594;9.938;2022-07-29T13:37:25;154935.69;;;26.17
15453;BMP280;7827;53.594;9.938;2022-07-29T13:39:57;154926.84;;;26.13
15453;BMP280;7827;53.594;9.938;2022-07-29T13:42:26;154902.78;;;26.04
15453;BMP280;7827;53.594;9.938;2022-07-29T13:44:54;154862.25;;;25.88
15453;BMP280;7827;53.594;9.938;2022-07-29T13:47:23;154867.34;;;25.90
15453;BMP280;7827;53.594;9.938;2022-07-29T13:50:00;154898.97;;;26.02
15453;BMP280;7827;53.594;9.938;2022-07-29T13:52:29;154909.13;;;26.06
15453;BMP280;7827;53.594;9.938;2022-07-29T13:54:58;154915.47;;;26.09
15453;BMP280;7827;53.594;9.938;2022-07-29T13:57:28;154897.72;;;26.02
15453;BMP280;7827;53.594;9.938;2022-07-29T13:59:56;154871.16;;;25.92
15453;BMP280;7827;53.594;9.938;2022-07-29T14:02:24;154824.28;;;25.73
15453;BMP280;7827;53.594;9.938;2022-07-29T14:04:53;154760.97;;;25.48
15453;BMP280;7827;53.594;9.938;2022-07-29T14:07:22;154680.00;;;25.17
15453;BMP280;7827;53.594;9.938;2022-07-29T14:09:51;154639.53;;;25.01
15453;BMP280;7827;53.594;9.938;2022-07-29T14:12:20;154635.72;;;25.00
15453;BMP280;7827;53.594;9.938;2022-07-29T14:14:49;154617.94;;;24.93
15453;BMP280;7827;53.594;9.938;2022-07-29T14:17:17;154593.94;;;24.83
15453;BMP280;7827;53.594;9.938;2022-07-29T14:19:46;154573.66;;;24.75
15453;BMP280;7827;53.594;9.938;2022-07-29T14:22:14;154531.94;;;24.59
15453;BMP280;7827;53.594;9.938;2022-07-29T14:24:42;154486.41;;;24.41
15453;BMP280;7827;53.594;9.938;2022-07-29T14:27:11;154481.38;;;24.39
15453;BMP280;7827;53.594;9.938;2022-07-29T14:29:41;154447.19;;;24.26
15453;BMP280;7827;53.594;9.938;2022-07-29T14:32:10;154434.50;;;24.21
15453;BMP280;7827;53.594;9.938;2022-07-29T14:34:38;154421.88;;;24.16
15453;BMP280;7827;53.594;9.938;2022-07-29T14:37:07;154397.84;;;24.06
15453;BMP280;7827;53.594;9.938;2022-07-29T14:39:42;154396.59;;;24.06
15453;BMP280;7827;53.594;9.938;2022-07-29T14:42:10;154381.41;;;24.00
15453;BMP280;7827;53.594;9.938;2022-07-29T14:44:41;154395.34;;;24.05
15453;BMP280;7827;53.594;9.938;2022-07-29T14:47:12;154400.38;;;24.07